LFRM/LME METAR and TAF weather

Enter ICAO airport designator
Station Type Date Time Source
LFRM METAR 2019/08/22 09:30 UTC NOAA

LFRM 220930Z AUTO VRB02KT CAVOK 22/12 Q1026 NOSIG


Station Type Date Time Source
LFRM Decoded METAR 2019/08/22 09:30 UTC NOAA

Station name not available
Aug 22, 2019 - 05:30 AM EDT / 2019.08.22 0930 UTC
Wind: Variable at 2 MPH (2 KT):0
Visibility: greater than 7 mile(s):0
Temperature: 71 F (22 C)
Dew Point: 53 F (12 C)
Relative Humidity: 53%
Pressure (altimeter): 30.30 in. Hg (1026 hPa)
ob: LFRM 220930Z AUTO VRB02KT CAVOK 22/12 Q1026 NOSIG
cycle: 9

Station Type Date Time Source
LFRM TAF 2019/08/22 06:24 UTC NOAA

TAF TAF LFRM 220500Z 2206/2306 VRB02KT CAVOK
BECMG 2212/2214 02005KT

Example: see airport list